createdAt,value
2022-08-17T00:00:34.672Z,100689.28
2022-08-17T00:03:24.940Z,100693.78
2022-08-17T00:06:02.244Z,100685.78
2022-08-17T00:08:34.458Z,100685.06
2022-08-17T00:11:04.266Z,100679.91
2022-08-17T00:13:40.753Z,100686.91
2022-08-17T00:16:20.665Z,100679.59
2022-08-17T00:19:12.530Z,100685.94
2022-08-17T00:22:28.751Z,100683.88
2022-08-17T00:24:30.937Z,100669.56
2022-08-17T00:26:57.905Z,100666.78
2022-08-17T00:29:24.835Z,100669.09
2022-08-17T00:31:51.778Z,100660.97
2022-08-17T00:34:18.987Z,100660.84
2022-08-17T00:36:46.026Z,100659.28
2022-08-17T00:39:13.026Z,100654.75
2022-08-17T00:41:40.132Z,100659.84
2022-08-17T00:44:12.240Z,100666.66
2022-08-17T00:46:42.244Z,100663.84
2022-08-17T00:49:12.178Z,100662.53
2022-08-17T00:51:56.399Z,100652.97
2022-08-17T00:54:41.963Z,100664.75
2022-08-17T00:57:16.442Z,100662.91
2022-08-17T01:00:01.898Z,100655.97
2022-08-17T01:02:42.206Z,100648.03
2022-08-17T01:05:18.919Z,100638.47
2022-08-17T01:07:48.379Z,100636.47
2022-08-17T01:11:00.423Z,100638.75
2022-08-17T01:13:09.461Z,100641.78
2022-08-17T01:15:41.406Z,100639.56
2022-08-17T01:18:13.700Z,100638.06
2022-08-17T01:20:49.165Z,100649.19
2022-08-17T01:23:20.744Z,100644.22
2022-08-17T01:25:57.890Z,100651.50
2022-08-17T01:28:33.309Z,100648.16
2022-08-17T01:31:15.269Z,100654.91
2022-08-17T01:33:42.580Z,100661.78
2022-08-17T01:36:09.998Z,100655.38
2022-08-17T01:38:39.375Z,100650.84
2022-08-17T01:41:12.339Z,100652.38
2022-08-17T01:44:02.063Z,100656.78
2022-08-17T01:46:35.733Z,100654.44
2022-08-17T01:49:09.162Z,100656.28
2022-08-17T01:51:37.065Z,100649.19
2022-08-17T01:54:09.002Z,100658.84
2022-08-17T01:56:49.811Z,100664.78
2022-08-17T01:59:18.833Z,100659.81
2022-08-17T02:01:46.885Z,100667.34
2022-08-17T02:04:14.770Z,100669.16
2022-08-17T02:06:52.843Z,100666.56
2022-08-17T02:09:25.986Z,100677.03
2022-08-17T02:11:56.300Z,100671.47
2022-08-17T02:14:24.850Z,100665.81
2022-08-17T02:16:52.199Z,100661.16
2022-08-17T02:19:19.165Z,100651.66
2022-08-17T02:21:49.565Z,100650.16
2022-08-17T02:25:00.359Z,100646.34
2022-08-17T02:27:09.926Z,100655.16
2022-08-17T02:29:37.305Z,100646.41
2022-08-17T02:32:05.037Z,100651.50
2022-08-17T02:34:32.701Z,100650.72
2022-08-17T02:36:59.680Z,100643.19
2022-08-17T02:39:26.718Z,100627.38
2022-08-17T02:42:02.319Z,100643.19
2022-08-17T02:44:38.794Z,100654.66
2022-08-17T02:47:07.881Z,100668.47
2022-08-17T02:49:34.845Z,100689.34
2022-08-17T02:52:06.665Z,100692.50
2022-08-17T02:54:39.618Z,100693.25
2022-08-17T02:57:10.450Z,100704.63
2022-08-17T02:59:39.543Z,100707.97
2022-08-17T03:02:10.465Z,100711.56
2022-08-17T03:04:38.106Z,100714.84
2022-08-17T03:07:05.758Z,100734.84
2022-08-17T03:09:33.029Z,100736.44
2022-08-17T03:12:10.150Z,100737.22
2022-08-17T03:14:41.729Z,100731.16
2022-08-17T03:17:12.805Z,100728.66
2022-08-17T03:19:44.866Z,100719.56
2022-08-17T03:22:35.939Z,100709.47
2022-08-17T03:24:59.250Z,100706.38
2022-08-17T03:27:26.397Z,100701.16
2022-08-17T03:29:54.043Z,100690.50
2022-08-17T03:32:21.394Z,100703.81
2022-08-17T03:34:48.654Z,100685.97
2022-08-17T03:37:15.834Z,100690.72
2022-08-17T03:39:43.144Z,100685.56
2022-08-17T03:42:32.358Z,100682.91
2022-08-17T03:45:02.154Z,100671.84
2022-08-17T03:47:47.307Z,100680.41
2022-08-17T03:50:38.833Z,100687.66
2022-08-17T03:53:36.001Z,100678.78
2022-08-17T03:56:23.158Z,100693.69
2022-08-17T03:58:50.710Z,100694.63
2022-08-17T04:01:18.017Z,100694.94
2022-08-17T04:03:45.146Z,100703.09
2022-08-17T04:06:12.115Z,100699.34
2022-08-17T04:08:39.122Z,100695.50
2022-08-17T04:11:06.175Z,100689.31
2022-08-17T04:13:33.208Z,100705.94
2022-08-17T04:16:00.207Z,100697.06
2022-08-17T04:18:27.219Z,100697.44
2022-08-17T04:20:54.280Z,100700.44
2022-08-17T04:23:21.240Z,100702.78
2022-08-17T04:25:51.340Z,100703.25
2022-08-17T04:28:20.132Z,100697.66
2022-08-17T04:30:48.166Z,100706.50
2022-08-17T04:33:24.668Z,100712.06
2022-08-17T04:36:00.517Z,100728.50
2022-08-17T04:38:35.666Z,100717.09
2022-08-17T04:41:22.530Z,100712.91
2022-08-17T04:43:54.985Z,100706.69
2022-08-17T04:46:35.089Z,100707.31
2022-08-17T04:49:07.973Z,100722.69
2022-08-17T04:51:54.490Z,100722.66
2022-08-17T04:54:23.663Z,100729.44
2022-08-17T04:56:50.699Z,100731.88
2022-08-17T04:59:21.685Z,100725.28
2022-08-17T05:01:51.533Z,100741.22
2022-08-17T05:04:34.153Z,100738.47
2022-08-17T05:07:04.634Z,100734.06
2022-08-17T05:09:31.923Z,100732.44
2022-08-17T05:12:02.483Z,100740.50
2022-08-17T05:14:33.449Z,100735.03
2022-08-17T05:17:01.961Z,100737.16
2022-08-17T05:19:34.213Z,100735.19
2022-08-17T05:22:05.873Z,100740.59
2022-08-17T05:24:43.060Z,100743.28
2022-08-17T05:27:19.103Z,100749.09
2022-08-17T05:29:46.241Z,100747.94
2022-08-17T05:32:38.675Z,100751.84
2022-08-17T05:35:01.444Z,100752.16
2022-08-17T05:37:28.391Z,100759.41
2022-08-17T05:39:55.432Z,100754.66
2022-08-17T05:42:22.803Z,100750.69
2022-08-17T05:44:49.886Z,100752.19
2022-08-17T05:47:18.378Z,100754.06
2022-08-17T05:49:45.545Z,100753.59
2022-08-17T05:52:49.944Z,100749.75
2022-08-17T05:55:43.509Z,100763.59
2022-08-17T05:58:16.966Z,100769.16
2022-08-17T06:01:09.246Z,100762.66
2022-08-17T06:03:53.171Z,100764.66
2022-08-17T06:06:59.142Z,100779.06
2022-08-17T06:09:49.583Z,100778.50
2022-08-17T06:12:43.862Z,100775.56
2022-08-17T06:15:47.499Z,100773.09
2022-08-17T06:18:18.914Z,100774.63
2022-08-17T06:20:53.565Z,100765.44
2022-08-17T06:23:36.556Z,100761.28
2022-08-17T06:26:13.216Z,100769.16
2022-08-17T06:29:18.733Z,100773.81
2022-08-17T06:31:46.600Z,100779.19
2022-08-17T06:34:13.863Z,100787.66
2022-08-17T06:37:13.411Z,100789.63
2022-08-17T06:40:11.068Z,100790.41
2022-08-17T06:43:38.379Z,100795.75
2022-08-17T06:46:25.396Z,100793.06
2022-08-17T06:49:19.783Z,100808.44
2022-08-17T06:51:50.628Z,100806.34
2022-08-17T06:54:46.086Z,100815.59
2022-08-17T06:57:28.569Z,100824.22
2022-08-17T07:00:22.251Z,100824.81
2022-08-17T07:03:37.776Z,100823.06
2022-08-17T07:06:15.413Z,100828.53
2022-08-17T07:09:10.731Z,100831.78
2022-08-17T07:12:03.227Z,100825.13
2022-08-17T07:15:20.657Z,100821.16
2022-08-17T07:17:48.497Z,100814.75
2022-08-17T07:20:22.446Z,100809.09
2022-08-17T07:23:00.284Z,100797.75
2022-08-17T07:25:30.465Z,100804.41
2022-08-17T07:28:05.294Z,100810.13
2022-08-17T07:30:46.977Z,100837.44
2022-08-17T07:33:20.089Z,100829.22
2022-08-17T07:35:49.856Z,100825.78
2022-08-17T07:38:31.733Z,100827.78
2022-08-17T07:41:02.196Z,100831.16
2022-08-17T07:43:40.882Z,100829.56
2022-08-17T07:46:39.837Z,100834.25
2022-08-17T07:49:09.438Z,100831.09
2022-08-17T07:51:47.891Z,100837.09
2022-08-17T07:54:23.945Z,100833.44
2022-08-17T07:57:03.645Z,100834.78
2022-08-17T07:59:37.200Z,100831.31
2022-08-17T08:02:33.616Z,100828.91
2022-08-17T08:05:10.022Z,100829.97
2022-08-17T08:07:52.241Z,100821.41
2022-08-17T08:10:45.013Z,100820.84
2022-08-17T08:13:25.041Z,100819.41
2022-08-17T08:16:14.216Z,100812.50
2022-08-17T08:18:56.052Z,100818.25
2022-08-17T08:21:51.285Z,100809.88
2022-08-17T08:25:16.549Z,100816.22
2022-08-17T08:28:11.853Z,100811.22
2022-08-17T08:30:47.685Z,100815.28
2022-08-17T08:33:29.505Z,100804.22
2022-08-17T08:36:11.516Z,100811.66
2022-08-17T08:39:04.079Z,100818.03
2022-08-17T08:42:02.361Z,100823.41
2022-08-17T08:45:00.758Z,100825.84
2022-08-17T08:48:23.085Z,100836.13
2022-08-17T08:51:21.118Z,100831.03
2022-08-17T08:53:53.715Z,100830.16
2022-08-17T08:56:31.609Z,100835.19
2022-08-17T08:59:44.564Z,100833.75
2022-08-17T09:02:51.850Z,100839.50
2022-08-17T09:05:57.708Z,100835.25
2022-08-17T09:08:48.998Z,100832.94
2022-08-17T09:12:01.411Z,100825.50
2022-08-17T09:14:45.059Z,100826.19
2022-08-17T09:18:21.358Z,100821.38
2022-08-17T09:20:50.353Z,100816.50
2022-08-17T09:23:30.524Z,100821.53
2022-08-17T09:26:07.778Z,100813.28
2022-08-17T09:28:38.256Z,100808.19
2022-08-17T09:31:35.531Z,100811.94
2022-08-17T09:34:38.944Z,100811.78
2022-08-17T09:37:19.264Z,100825.34
2022-08-17T09:40:08.633Z,100825.31
2022-08-17T09:42:55.096Z,100827.16
2022-08-17T09:45:52.452Z,100831.00
2022-08-17T09:48:32.962Z,100836.91
2022-08-17T09:51:40.156Z,100843.31
2022-08-17T09:54:41.141Z,100836.75
2022-08-17T09:57:30.400Z,100848.63
2022-08-17T10:00:18.687Z,100844.81
2022-08-17T10:03:24.156Z,100849.53
2022-08-17T10:06:02.009Z,100859.66
2022-08-17T10:08:51.898Z,100852.31
2022-08-17T10:11:57.952Z,100853.81
2022-08-17T10:14:55.263Z,100865.31
2022-08-17T10:17:41.545Z,100858.50
2022-08-17T10:20:20.908Z,100862.69
2022-08-17T10:23:10.212Z,100864.94
2022-08-17T10:26:04.022Z,100868.00
2022-08-17T10:29:06.649Z,100875.88
2022-08-17T10:31:48.084Z,100873.59
2022-08-17T10:35:20.825Z,100881.91
2022-08-17T10:38:05.545Z,100875.19
2022-08-17T10:41:02.185Z,100879.38
2022-08-17T10:44:39.095Z,100883.16
2022-08-17T10:47:07.594Z,100893.31
2022-08-17T10:49:53.886Z,100889.03
2022-08-17T10:52:21.947Z,100889.91
2022-08-17T10:54:51.862Z,100898.59
2022-08-17T10:57:33.829Z,100892.97
2022-08-17T11:00:16.441Z,100900.59
2022-08-17T11:02:51.738Z,100897.44
2022-08-17T11:05:43.679Z,100896.88
2022-08-17T11:08:46.281Z,100900.34
2022-08-17T11:11:36.101Z,100896.06
2022-08-17T11:14:53.386Z,100898.03
2022-08-17T11:17:30.073Z,100903.13
2022-08-17T11:20:34.390Z,100901.50
2022-08-17T11:23:57.342Z,100898.03
2022-08-17T11:26:34.759Z,100895.47
2022-08-17T11:29:27.516Z,100901.03
2022-08-17T11:32:15.098Z,100902.22
2022-08-17T11:34:44.616Z,100895.00
2022-08-17T11:37:35.670Z,100904.53
2022-08-17T11:40:24.505Z,100901.97
2022-08-17T11:43:25.621Z,100904.53
2022-08-17T11:46:10.588Z,100904.97
2022-08-17T11:49:04.888Z,100902.94
2022-08-17T11:52:01.362Z,100908.22
2022-08-17T11:54:33.834Z,100911.88
2022-08-17T11:57:27.341Z,100918.75
2022-08-17T12:00:12.243Z,100919.97
2022-08-17T12:02:48.178Z,100919.56
2022-08-17T12:05:18.183Z,100924.91
2022-08-17T12:08:15.237Z,100927.56
2022-08-17T12:10:58.513Z,100927.44
2022-08-17T12:13:27.341Z,100922.00
2022-08-17T12:15:58.632Z,100917.66
2022-08-17T12:18:35.645Z,100929.50
2022-08-17T12:21:20.400Z,100927.34
2022-08-17T12:24:05.346Z,100930.69
2022-08-17T12:26:35.598Z,100923.16
2022-08-17T12:29:18.413Z,100926.28
2022-08-17T12:32:02.245Z,100941.19
2022-08-17T12:34:39.848Z,100937.47
2022-08-17T12:37:24.931Z,100931.63
2022-08-17T12:39:53.546Z,100936.03
2022-08-17T12:43:00.846Z,100926.16
2022-08-17T12:45:35.383Z,100933.03
2022-08-17T12:48:08.230Z,100929.41
2022-08-17T12:50:38.502Z,100928.38
2022-08-17T12:53:12.914Z,100929.41
2022-08-17T12:55:40.440Z,100927.19
2022-08-17T12:58:14.809Z,100921.75
2022-08-17T13:00:56.301Z,100912.09
2022-08-17T13:03:27.847Z,100917.44
2022-08-17T13:06:12.787Z,100917.22
2022-08-17T13:08:44.325Z,100923.28
2022-08-17T13:11:14.569Z,100921.41
2022-08-17T13:13:45.227Z,100931.28
2022-08-17T13:16:16.616Z,100928.59
2022-08-17T13:18:58.398Z,100935.91
2022-08-17T13:21:30.693Z,100929.66
2022-08-17T13:24:21.117Z,100937.31
2022-08-17T13:27:15.369Z,100934.16
2022-08-17T13:29:45.270Z,100926.88
2022-08-17T13:32:31.097Z,100926.38
2022-08-17T13:35:14.303Z,100934.81
2022-08-17T13:38:02.723Z,100928.53
2022-08-17T13:40:36.414Z,100926.03
2022-08-17T13:43:05.078Z,100919.88
2022-08-17T13:45:50.410Z,100938.25
2022-08-17T13:48:26.855Z,100928.81
2022-08-17T13:50:56.831Z,100922.31
2022-08-17T13:53:52.068Z,100924.28
2022-08-17T13:57:04.711Z,100921.19
2022-08-17T13:59:55.326Z,100924.28
2022-08-17T14:02:26.108Z,100920.13
2022-08-17T14:04:55.886Z,100918.09
2022-08-17T14:07:33.579Z,100908.69
2022-08-17T14:10:12.571Z,100907.41
2022-08-17T14:12:42.775Z,100904.53
2022-08-17T14:15:13.237Z,100905.34
2022-08-17T14:17:40.200Z,100907.88
2022-08-17T14:20:12.198Z,100912.75
2022-08-17T14:22:44.723Z,100905.81
2022-08-17T14:25:18.682Z,100908.22
2022-08-17T14:27:53.135Z,100910.09
2022-08-17T14:30:25.203Z,100910.72
2022-08-17T14:32:53.691Z,100909.25
2022-08-17T14:35:23.856Z,100907.75
2022-08-17T14:37:52.699Z,100897.66
2022-08-17T14:40:24.628Z,100895.06
2022-08-17T14:42:55.102Z,100898.28
2022-08-17T14:45:32.891Z,100907.88
2022-08-17T14:48:04.511Z,100912.50
2022-08-17T14:50:32.193Z,100906.66
2022-08-17T14:53:04.596Z,100903.50
2022-08-17T14:55:32.589Z,100905.94
2022-08-17T14:57:59.680Z,100901.53
2022-08-17T15:00:27.268Z,100898.28
2022-08-17T15:02:58.538Z,100895.22
2022-08-17T15:05:33.661Z,100884.31
2022-08-17T15:08:02.868Z,100891.31
2022-08-17T15:10:30.707Z,100895.56
2022-08-17T15:12:58.590Z,100895.59
2022-08-17T15:15:26.222Z,100890.00
2022-08-17T15:17:53.268Z,100888.53
2022-08-17T15:20:25.207Z,100886.69
2022-08-17T15:22:56.131Z,100897.41
2022-08-17T15:25:29.370Z,100889.66
2022-08-17T15:27:56.402Z,100894.16
2022-08-17T15:30:25.749Z,100896.25
2022-08-17T15:32:55.309Z,100901.16
2022-08-17T15:35:27.975Z,100900.88
2022-08-17T15:38:11.614Z,100904.22
2022-08-17T15:40:44.001Z,100908.91
2022-08-17T15:43:17.324Z,100916.63
2022-08-17T15:45:58.632Z,100922.88
2022-08-17T15:48:41.570Z,100921.63
2022-08-17T15:51:25.265Z,100916.81
2022-08-17T15:53:56.158Z,100917.28
2022-08-17T15:56:25.263Z,100917.06
2022-08-17T15:58:54.744Z,100918.63
2022-08-17T16:03:01.696Z,100917.41
2022-08-17T16:04:26.511Z,100917.59
2022-08-17T16:06:58.047Z,100927.19
2022-08-17T16:09:25.039Z,100932.38
2022-08-17T16:11:55.287Z,100923.66
2022-08-17T16:14:24.423Z,100922.94
2022-08-17T16:16:59.154Z,100929.78
2022-08-17T16:19:26.289Z,100931.66
2022-08-17T16:21:53.226Z,100941.69
2022-08-17T16:24:20.273Z,100946.66
2022-08-17T16:26:47.245Z,100947.72
2022-08-17T16:29:14.248Z,100953.94
2022-08-17T16:31:42.436Z,100958.59
2022-08-17T16:34:17.333Z,100967.75
2022-08-17T16:36:55.615Z,100978.88
2022-08-17T16:39:29.463Z,100988.31
2022-08-17T16:41:57.606Z,100996.53
2022-08-17T16:44:27.508Z,101000.13
2022-08-17T16:46:54.620Z,101004.63
2022-08-17T16:49:25.776Z,101004.69
2022-08-17T16:52:09.860Z,100993.03
2022-08-17T16:54:43.804Z,100983.34
2022-08-17T16:57:12.282Z,100979.41
2022-08-17T16:59:43.654Z,100976.72
2022-08-17T17:02:26.478Z,100978.59
2022-08-17T17:05:45.338Z,100973.13
2022-08-17T17:08:38.318Z,100965.31
2022-08-17T17:11:29.547Z,100962.53
2022-08-17T17:14:02.028Z,100969.09
2022-08-17T17:17:03.340Z,100972.81
2022-08-17T17:19:45.657Z,100973.56
2022-08-17T17:22:45.306Z,100974.16
2022-08-17T17:25:27.656Z,100973.44
2022-08-17T17:28:25.083Z,100963.72
2022-08-17T17:31:10.673Z,100953.69
2022-08-17T17:33:47.822Z,100954.00
2022-08-17T17:36:32.939Z,100936.63
2022-08-17T17:39:31.922Z,100940.06
2022-08-17T17:42:07.640Z,100936.03
2022-08-17T17:44:42.496Z,100943.59
2022-08-17T17:47:12.263Z,100933.84
2022-08-17T17:49:46.299Z,100938.44
2022-08-17T17:52:31.329Z,100935.97
2022-08-17T17:55:25.513Z,100931.28
2022-08-17T17:58:13.669Z,100929.78
2022-08-17T18:00:49.477Z,100925.25
2022-08-17T18:03:22.269Z,100922.91
2022-08-17T18:06:10.386Z,100926.13
2022-08-17T18:08:55.074Z,100917.03
2022-08-17T18:11:51.720Z,100914.69
2022-08-17T18:14:46.487Z,100916.56
2022-08-17T18:17:14.537Z,100915.59
2022-08-17T18:19:41.592Z,100926.31
2022-08-17T18:22:19.278Z,100924.91
2022-08-17T18:24:54.092Z,100926.69
2022-08-17T18:27:37.167Z,100930.88
2022-08-17T18:30:13.097Z,100933.91
2022-08-17T18:32:43.708Z,100939.88
2022-08-17T18:35:16.438Z,100937.09
2022-08-17T18:37:52.653Z,100944.44
2022-08-17T18:40:19.888Z,100944.91
2022-08-17T18:43:06.941Z,100952.59
2022-08-17T18:45:52.504Z,100944.41
2022-08-17T18:48:33.514Z,100958.13
2022-08-17T18:51:33.197Z,100952.88
2022-08-17T18:54:25.647Z,100963.94
2022-08-17T18:56:55.687Z,100967.63
2022-08-17T18:59:38.694Z,100975.66
2022-08-17T19:05:13.593Z,100989.75
2022-08-17T19:07:45.864Z,100980.19
2022-08-17T19:10:33.243Z,100984.97
2022-08-17T19:13:23.833Z,100989.88
2022-08-17T19:16:17.672Z,101000.25
2022-08-17T19:19:08.330Z,101011.06
2022-08-17T19:21:53.998Z,101012.38
2022-08-17T19:24:24.989Z,101016.09
2022-08-17T19:27:43.716Z,101024.19
2022-08-17T19:30:17.221Z,101032.16
2022-08-17T19:32:44.193Z,101030.88
2022-08-17T19:35:17.403Z,101042.59
2022-08-17T19:37:56.522Z,101043.38
2022-08-17T19:40:52.874Z,101030.13
2022-08-17T19:43:50.685Z,101034.44
2022-08-17T19:46:50.432Z,101044.00
2022-08-17T19:49:41.715Z,101048.53
2022-08-17T19:52:57.773Z,101039.03
2022-08-17T19:55:43.601Z,101049.91
2022-08-17T19:59:35.651Z,101066.44
2022-08-17T20:02:31.006Z,101072.41
2022-08-17T20:05:07.818Z,101060.34
2022-08-17T20:07:54.866Z,101073.69
2022-08-17T20:10:54.412Z,101075.34
2022-08-17T20:13:49.049Z,101078.22
2022-08-17T20:16:19.788Z,101087.94
2022-08-17T20:18:59.322Z,101097.91
2022-08-17T20:21:31.428Z,101089.88
2022-08-17T20:24:26.442Z,101102.03
2022-08-17T20:27:50.619Z,101090.81
2022-08-17T20:30:23.443Z,101085.78
2022-08-17T20:32:55.397Z,101087.56
2022-08-17T20:36:21.747Z,101083.94
2022-08-17T20:38:57.335Z,101089.69
2022-08-17T20:41:28.137Z,101073.91
2022-08-17T20:43:58.904Z,101073.19
2022-08-17T20:46:40.710Z,101077.28
2022-08-17T20:49:40.143Z,101072.84
2022-08-17T20:52:15.536Z,101073.53
2022-08-17T20:54:57.373Z,101078.44
2022-08-17T20:57:33.488Z,101086.78
2022-08-17T21:00:29.766Z,101086.66
2022-08-17T21:03:24.531Z,101091.97
2022-08-17T21:06:14.458Z,101094.84
2022-08-17T21:09:12.543Z,101094.53
2022-08-17T21:12:03.205Z,101098.59
2022-08-17T21:14:59.761Z,101089.31
2022-08-17T21:17:49.377Z,101099.03
2022-08-17T21:21:25.982Z,101105.25
2022-08-17T21:24:34.940Z,101093.75
2022-08-17T21:27:29.306Z,101099.06
2022-08-17T21:30:02.405Z,101103.56
2022-08-17T21:32:41.829Z,101101.81
2022-08-17T21:35:22.839Z,101109.19
2022-08-17T21:37:58.280Z,101106.66
2022-08-17T21:40:30.207Z,101107.31
2022-08-17T21:43:29.355Z,101114.19
2022-08-17T21:46:03.113Z,101113.44
2022-08-17T21:48:42.128Z,101114.22
2022-08-17T21:51:27.448Z,101124.63
2022-08-17T21:54:02.222Z,101128.03
2022-08-17T21:56:36.265Z,101122.09
2022-08-17T21:59:06.849Z,101126.06
2022-08-17T22:01:37.783Z,101129.94
2022-08-17T22:04:11.299Z,101123.84
2022-08-17T22:06:56.729Z,101113.00
2022-08-17T22:09:31.872Z,101115.06
2022-08-17T22:12:02.907Z,101121.31
2022-08-17T22:14:53.119Z,101136.25
2022-08-17T22:17:23.130Z,101132.59
2022-08-17T22:19:53.643Z,101137.50
2022-08-17T22:23:06.347Z,101127.75
2022-08-17T22:25:38.357Z,101135.94
2022-08-17T22:28:11.689Z,101141.25
2022-08-17T22:31:04.308Z,101147.81
2022-08-17T22:34:07.560Z,101142.88
2022-08-17T22:36:40.433Z,101145.97
2022-08-17T22:39:09.846Z,101135.72
2022-08-17T22:42:00.203Z,101135.94
2022-08-17T22:44:46.914Z,101145.13
2022-08-17T22:47:17.163Z,101139.63
2022-08-17T22:49:53.124Z,101137.56
2022-08-17T22:52:59.836Z,101134.53
2022-08-17T22:55:48.318Z,101136.25
2022-08-17T22:58:39.168Z,101119.91
2022-08-17T23:01:28.440Z,101125.28
2022-08-17T23:04:05.899Z,101120.63
2022-08-17T23:06:36.326Z,101131.59
2022-08-17T23:09:06.571Z,101123.25
2022-08-17T23:11:50.058Z,101118.94
2022-08-17T23:14:20.549Z,101125.28
2022-08-17T23:16:51.369Z,101120.38
2022-08-17T23:19:21.396Z,101121.78
2022-08-17T23:21:51.016Z,101115.47
2022-08-17T23:24:24.569Z,101113.22
2022-08-17T23:26:52.315Z,101107.28
2022-08-17T23:29:21.585Z,101112.38
2022-08-17T23:31:50.490Z,101129.56
2022-08-17T23:34:18.645Z,101132.88
2022-08-17T23:36:51.302Z,101131.41
2022-08-17T23:39:24.558Z,101117.94
2022-08-17T23:41:59.573Z,101115.47
2022-08-17T23:44:27.758Z,101124.28
2022-08-17T23:46:54.983Z,101133.88
2022-08-17T23:49:23.431Z,101126.53
2022-08-17T23:51:50.397Z,101137.50
2022-08-17T23:54:23.290Z,101136.31
2022-08-17T23:56:50.501Z,101129.81
2022-08-17T23:59:21.620Z,101129.81
